Etusivu
METAR-TAF:

METAR-TAF

Lentoasemat :

Marshalltown Municipal Airport

Marshalltown, Iowa, Yhdysvallat

Leveyspiiri: 42-06-38N, Pituuspiiri: 092-54-58W, korkeus merenpinnasta: 296 m

Tämänhetkinen sää

Tämä raportti tehtiin 21 minuuttia sitten, kello 19.53 UTC
Tuuli 16 kn pohjoisen/luoteesta puuskistuen 23 kn:hen
Lämpötila 0°C
Kosteus 59%
Ilmanpaine 1024 hPa
Näkyvyys: 16.1 km
Hajonneita pilviä 3000 ft:n korkeudessa
Hajonneita pilviä 3700 ft:n korkeudessa

METAR: KMIW 261953Z AUTO 33016G23KT 10SM BKN030 BKN037 00/M07 A3023 RMK AO2 SLP248 T00001067 $

Aika: 14:14 (20:14 UTC)


TAF: puuttuu

Säähavainnot ja -ennusteet yli 4000 lentoasemalta (METAR- ja TAF-raportit).

Käytössä olevat sääasemat on merkitty karttaan keltaisilla ja punaisilla pisteillä.

Aseta hiiri pisteen päälle nähdäksesi sääaseman nimen.

Klikkaa sitten nähdäksesi säähavainnot ja -ennusteet.

Kartan vaihtaminen: klikkaa mustalla rastilla varustettuja vihreitä pisteitä, niin voit zoomata sisään; viivalla varustettua vihreää pistettä, niin voit zoomata ulos tai vihreitä nuolia, niin pääset viereisille kartoille.


METAR-TAF: